Time;durP1;ratioP1;P1;durP2;ratioP2;P2;SDS_P1;SDS_P2;PMS_P1;PMS_P2;Temp;Humidity;BMP_temperature;BMP_pressure;BME280_temperature;BME280_humidity;BME280_pressure;Samples;Min_cycle;Max_cycle;Signal;HPM_P1;HPM_P2
2023/07/14 00:01:54;;;;;;;8.45;4.40;;;;;;;25.23;47.82;98374.75;5032375;28;20059;-70
2023/07/14 00:04:25;;;;;;;7.22;4.55;;;;;;;25.46;47.69;98374.06;5004142;28;20056;-70
2023/07/14 00:06:51;;;;;;;9.60;4.82;;;;;;;25.17;47.73;98377.78;5020893;28;20068;-70
2023/07/14 00:09:31;;;;;;;5.90;4.50;;;;;;;25.63;47.22;98377.16;5020412;28;20037;-70
2023/07/14 00:11:59;;;;;;;6.40;4.70;;;;;;;25.51;47.14;98371.28;5003862;28;20037;-70
2023/07/14 00:14:27;;;;;;;9.13;4.47;;;;;;;25.33;46.92;98368.44;5004580;28;20106;-70
2023/07/14 00:16:54;;;;;;;7.82;4.70;;;;;;;25.39;47.31;98372.75;5004117;28;20049;-70
2023/07/14 00:19:21;;;;;;;6.50;4.25;;;;;;;25.23;47.51;98365.78;5004022;28;20053;-70
2023/07/14 00:21:47;;;;;;;9.32;4.30;;;;;;;25.10;47.38;98358.25;5020409;28;20045;-71
2023/07/14 00:24:16;;;;;;;10.02;4.43;;;;;;;25.26;47.52;98359.78;5003683;28;20099;-70
2023/07/14 00:26:46;;;;;;;8.00;4.00;;;;;;;25.41;47.59;98360.50;5003726;28;20068;-70
2023/07/14 00:29:21;;;;;;;6.45;4.60;;;;;;;25.37;47.65;98359.44;5002960;28;20043;-70
2023/07/14 00:31:48;;;;;;;7.72;4.07;;;;;;;25.26;47.83;98354.34;5036396;28;20052;-70
2023/07/14 00:34:14;;;;;;;10.57;4.38;;;;;;;25.20;47.15;98359.00;4987185;28;20510;-70
2023/07/14 00:36:40;;;;;;;9.13;4.05;;;;;;;25.26;47.17;98355.16;5002211;28;20088;-72
2023/07/14 00:39:06;;;;;;;6.55;4.25;;;;;;;25.21;47.20;98366.06;4987594;28;20095;-70
2023/07/14 00:41:32;;;;;;;7.50;4.45;;;;;;;25.26;47.02;98362.50;4988037;28;20482;-70
2023/07/14 00:44:01;;;;;;;7.30;4.20;;;;;;;25.23;46.99;98365.78;5003054;28;20057;-70
2023/07/14 00:46:29;;;;;;;7.85;4.43;;;;;;;25.36;47.49;98365.97;4986091;28;20045;-71
2023/07/14 00:49:04;;;;;;;10.93;4.17;;;;;;;25.41;47.29;98365.94;5019236;28;20049;-70
2023/07/14 00:51:34;;;;;;;9.20;4.00;;;;;;;25.20;47.59;98364.41;5003438;28;20041;-70
2023/07/14 00:54:00;;;;;;;7.78;4.00;;;;;;;25.10;47.45;98375.38;5035189;28;20531;-70
2023/07/14 00:56:47;;;;;;;8.45;3.70;;;;;;;25.56;47.14;98378.59;4986247;28;20076;-71
2023/07/14 00:59:17;;;;;;;9.07;4.00;;;;;;;25.29;47.24;98370.09;5002223;28;20484;-70
2023/07/14 01:02:10;;;;;;;9.80;4.03;;;;;;;25.45;46.82;98377.06;5002010;28;20045;-70
2023/07/14 01:04:45;;;;;;;5.30;4.22;;;;;;;25.23;47.60;98385.63;5001705;28;20060;-70
2023/07/14 01:07:12;;;;;;;6.20;3.65;;;;;;;25.27;47.17;98380.41;5018883;28;20186;-70
2023/07/14 01:09:43;;;;;;;13.57;4.38;;;;;;;25.34;47.27;98381.75;5001632;28;20052;-71
2023/07/14 01:12:12;;;;;;;5.10;3.28;;;;;;;25.12;47.09;98365.03;5018858;28;20053;-70
2023/07/14 01:14:42;;;;;;;5.05;3.42;;;;;;;25.27;47.19;98381.25;5003656;28;20056;-70
2023/07/14 01:17:09;;;;;;;5.93;3.50;;;;;;;25.25;47.48;98372.53;5018130;28;20048;-70
2023/07/14 01:19:48;;;;;;;6.18;3.30;;;;;;;25.45;47.65;98377.06;4986986;28;20310;-70
2023/07/14 01:22:26;;;;;;;4.05;3.20;;;;;;;25.44;47.12;98365.38;5019299;28;20037;-70
2023/07/14 01:25:27;;;;;;;4.75;3.38;;;;;;;25.58;46.60;98374.50;5035107;28;20109;-71
2023/07/14 01:27:53;;;;;;;4.95;3.47;;;;;;;25.26;46.60;98382.34;5018733;28;20045;-69
2023/07/14 01:30:20;;;;;;;6.20;3.47;;;;;;;25.44;46.62;98370.00;5002228;28;20502;-69
2023/07/14 01:32:50;;;;;;;9.30;3.70;;;;;;;25.40;46.25;98377.09;4987495;28;20045;-70
2023/07/14 01:35:18;;;;;;;8.68;3.58;;;;;;;25.50;46.04;98375.09;5002449;28;20064;-70
2023/07/14 01:37:46;;;;;;;7.80;3.47;;;;;;;25.49;46.01;98378.13;5002265;28;20450;-70
2023/07/14 01:40:15;;;;;;;5.82;3.10;;;;;;;25.58;45.44;98374.50;5018552;28;20052;-70
2023/07/14 01:42:42;;;;;;;6.80;3.22;;;;;;;25.58;45.61;98376.41;5034893;28;20076;-70
2023/07/14 01:45:13;;;;;;;8.27;3.13;;;;;;;25.73;45.18;98384.41;4981527;28;20054;-70
2023/07/14 01:47:42;;;;;;;8.15;3.25;;;;;;;25.68;45.32;98389.94;4965631;28;20494;-70
2023/07/14 01:50:19;;;;;;;3.15;2.75;;;;;;;25.84;45.11;98389.50;4981938;28;20507;-70
2023/07/14 01:52:46;;;;;;;7.05;3.47;;;;;;;25.69;45.06;98394.25;4982068;28;20411;-70
2023/07/14 01:55:14;;;;;;;4.55;3.03;;;;;;;25.76;45.00;98390.09;4981638;28;20111;-70
2023/07/14 01:57:41;;;;;;;5.85;3.10;;;;;;;25.73;44.59;98384.41;4965465;28;20056;-70
2023/07/14 02:00:11;;;;;;;9.95;3.28;;;;;;;25.77;44.74;98397.16;4981647;28;20554;-70
2023/07/14 02:02:44;;;;;;;4.15;2.97;;;;;;;25.67;45.06;98385.56;4983412;28;20053;-70
2023/07/14 02:05:13;;;;;;;5.40;2.97;;;;;;;25.82;44.78;98399.84;4981107;28;20064;-68
2023/07/14 02:07:39;;;;;;;6.70;3.60;;;;;;;25.64;44.60;98400.56;4981297;28;20392;-70
2023/07/14 02:10:18;;;;;;;6.78;3.55;;;;;;;25.94;44.58;98413.09;4981420;28;20096;-69
2023/07/14 02:12:49;;;;;;;7.20;3.38;;;;;;;25.92;44.80;98415.28;4999174;28;20045;-70
2023/07/14 02:15:20;;;;;;;10.93;3.88;;;;;;;25.88;44.38;98415.03;4986107;28;20056;-70
2023/07/14 02:17:47;;;;;;;8.55;3.60;;;;;;;25.76;44.58;98411.88;5002195;28;20037;-70
2023/07/14 02:20:39;;;;;;;13.32;3.70;;;;;;;26.06;44.70;98411.59;5011455;28;20140;-70
2023/07/14 02:23:10;;;;;;;17.10;3.40;;;;;;;25.97;45.18;98410.56;5036146;28;20376;-70
2023/07/14 02:25:44;;;;;;;7.68;4.22;;;;;;;26.07;45.16;98413.25;5018532;28;20052;-70
2023/07/14 02:28:10;;;;;;;10.70;3.60;;;;;;;25.90;44.92;98415.56;5003342;28;20411;-70
2023/07/14 02:30:39;;;;;;;10.05;3.60;;;;;;;25.94;45.29;98413.88;5020058;28;20053;-70
2023/07/14 02:33:20;;;;;;;9.32;3.60;;;;;;;26.09;45.33;98421.13;5035996;28;20041;-70
2023/07/14 02:36:10;;;;;;;9.90;3.88;;;;;;;26.16;45.12;98421.59;5002034;28;20045;-71
2023/07/14 02:38:37;;;;;;;8.70;4.22;;;;;;;25.85;45.71;98409.34;5001939;28;20065;-70
2023/07/14 02:41:40;;;;;;;11.93;3.97;;;;;;;26.17;45.04;98421.28;5002086;28;20047;-70
2023/07/14 02:44:11;;;;;;;8.73;4.20;;;;;;;26.02;45.33;98418.72;5016857;28;20415;-70
2023/07/14 02:46:47;;;;;;;6.60;3.40;;;;;;;26.13;45.08;98422.97;5033181;28;20107;-70
2023/07/14 02:49:13;;;;;;;9.13;3.60;;;;;;;25.84;45.09;98427.59;5016756;28;20487;-70
2023/07/14 02:51:41;;;;;;;9.23;3.65;;;;;;;26.01;44.75;98424.47;5003601;28;20049;-70
2023/07/14 02:54:08;;;;;;;4.65;3.05;;;;;;;26.11;44.35;98432.50;5005600;28;20040;-70
2023/07/14 02:56:36;;;;;;;5.72;3.38;;;;;;;26.01;44.35;98440.78;4984611;28;20062;-70
2023/07/14 02:59:02;;;;;;;5.65;3.00;;;;;;;25.94;44.56;98435.63;4984694;28;20054;-70
2023/07/14 03:01:29;;;;;;;7.22;3.30;;;;;;;25.89;44.58;98453.94;5000802;28;20077;-70
2023/07/14 03:03:57;;;;;;;10.38;3.05;;;;;;;26.09;44.54;98448.34;5001062;28;20060;-70
2023/07/14 03:06:25;;;;;;;5.47;2.88;;;;;;;26.12;44.49;98448.56;4968466;28;20087;-70
2023/07/14 03:08:51;;;;;;;6.82;3.13;;;;;;;25.84;44.51;98462.94;5000608;28;20045;-70
2023/07/14 03:11:18;;;;;;;5.00;2.75;;;;;;;25.85;44.85;98453.69;4968346;28;20080;-70
2023/07/14 03:13:46;;;;;;;4.65;3.00;;;;;;;25.98;45.19;98458.47;5000662;28;20041;-70
2023/07/14 03:16:13;;;;;;;4.30;2.85;;;;;;;25.97;44.56;98454.09;5000844;28;20038;-70
2023/07/14 03:18:41;;;;;;;6.95;3.00;;;;;;;26.01;44.79;98441.59;4968041;28;20115;-70
2023/07/14 03:21:11;;;;;;;5.25;2.75;;;;;;;25.99;45.10;98459.28;4968493;28;20053;-70
2023/07/14 03:23:37;;;;;;;4.45;3.10;;;;;;;25.83;44.69;98471.41;5017275;28;20143;-70
2023/07/14 03:26:08;;;;;;;4.45;2.97;;;;;;;26.14;44.56;98462.69;5013486;28;20129;-70
2023/07/14 03:28:34;;;;;;;3.83;2.85;;;;;;;25.97;44.45;98473.16;4981423;28;20076;-72
2023/07/14 03:31:01;;;;;;;7.20;2.60;;;;;;;25.79;44.28;98465.69;4965439;28;20053;-70
2023/07/14 03:33:28;;;;;;;6.75;2.90;;;;;;;26.08;44.27;98474.72;4989580;28;20057;-70
2023/07/14 03:36:02;;;;;;;3.00;2.38;;;;;;;26.19;44.49;98470.81;5003627;28;20458;-70
2023/07/14 03:38:27;;;;;;;2.45;2.25;;;;;;;25.91;44.94;98485.19;5036439;28;20145;-70
2023/07/14 03:40:55;;;;;;;4.78;2.88;;;;;;;26.12;44.98;98481.22;5003397;28;20037;-70
2023/07/14 03:43:23;;;;;;;4.10;2.42;;;;;;;25.93;44.66;98474.84;5021207;28;20045;-70
2023/07/14 03:45:50;;;;;;;5.70;2.80;;;;;;;25.96;44.42;98468.81;4989082;28;20044;-70
2023/07/14 03:48:17;;;;;;;4.43;2.47;;;;;;;25.94;44.30;98476.44;5004483;28;20080;-70
2023/07/14 03:50:43;;;;;;;3.80;2.45;;;;;;;26.02;44.33;98480.50;4988924;28;20081;-70
2023/07/14 03:53:09;;;;;;;5.68;2.70;;;;;;;26.08;44.10;98480.19;5020525;28;20048;-70
2023/07/14 03:55:37;;;;;;;5.97;2.63;;;;;;;26.18;44.35;98485.53;5003703;28;20041;-70
2023/07/14 03:58:03;;;;;;;4.55;2.90;;;;;;;26.11;43.91;98478.78;5019676;28;20121;-70
2023/07/14 04:00:31;;;;;;;8.15;2.90;;;;;;;26.43;43.44;98488.00;5003161;28;20487;-70
2023/07/14 04:02:59;;;;;;;6.32;3.20;;;;;;;26.38;43.42;98488.06;4989748;28;20053;-70
2023/07/14 04:05:25;;;;;;;3.78;2.30;;;;;;;26.24;43.34;98498.00;5003564;28;20057;-70
2023/07/14 04:07:57;;;;;;;3.35;2.80;;;;;;;26.12;43.26;98496.75;5037697;28;20106;-70
2023/07/14 04:10:23;;;;;;;4.50;2.80;;;;;;;26.26;43.17;98501.22;5004043;28;20049;-70
2023/07/14 04:12:50;;;;;;;5.07;2.58;;;;;;;26.44;43.37;98496.97;5020246;28;20062;-70
2023/07/14 04:15:17;;;;;;;4.53;2.55;;;;;;;26.48;43.11;98504.28;5003680;28;20072;-71
2023/07/14 04:17:43;;;;;;;5.47;2.67;;;;;;;26.40;42.81;98494.03;5020461;28;20060;-70
2023/07/14 04:20:10;;;;;;;4.15;2.70;;;;;;;26.48;43.14;98499.97;5021254;28;20495;-71
2023/07/14 04:22:36;;;;;;;4.78;2.80;;;;;;;26.43;43.38;98500.81;5022637;28;20056;-70
2023/07/14 04:25:02;;;;;;;5.22;3.20;;;;;;;26.43;42.97;98498.88;5004716;28;20162;-70
2023/07/14 04:27:33;;;;;;;4.57;3.20;;;;;;;26.47;43.06;98510.03;5021898;28;20041;-70
2023/07/14 04:29:59;;;;;;;4.50;2.63;;;;;;;26.55;42.76;98511.31;5021397;28;20041;-70
2023/07/14 04:32:26;;;;;;;4.55;3.00;;;;;;;26.48;42.83;98517.91;5020801;28;20113;-71
2023/07/14 04:34:54;;;;;;;5.43;3.33;;;;;;;26.49;42.74;98514.06;5019006;28;20052;-70
2023/07/14 04:37:20;;;;;;;4.75;3.00;;;;;;;26.48;42.77;98523.34;4986030;28;20156;-70
2023/07/14 04:39:46;;;;;;;4.03;3.50;;;;;;;26.70;42.77;98514.72;4986226;28;20048;-70
2023/07/14 04:42:12;;;;;;;6.38;4.38;;;;;;;26.64;42.92;98523.22;4986408;28;20052;-70
2023/07/14 04:44:39;;;;;;;6.28;3.20;;;;;;;26.62;42.91;98512.59;4986119;28;20052;-70
2023/07/14 04:47:05;;;;;;;7.43;3.28;;;;;;;26.72;42.78;98519.88;4986232;28;20163;-70
2023/07/14 04:49:31;;;;;;;6.70;2.72;;;;;;;26.83;42.65;98505.03;5002293;28;20071;-70
2023/07/14 04:51:57;;;;;;;5.32;2.85;;;;;;;26.81;42.82;98497.16;4986306;28;20435;-72
2023/07/14 04:54:23;;;;;;;7.53;3.10;;;;;;;26.83;42.80;98500.38;5031845;28;20050;-70
2023/07/14 04:56:50;;;;;;;5.90;3.00;;;;;;;26.98;42.59;98493.94;5015848;28;20057;-70
2023/07/14 04:59:17;;;;;;;4.97;3.08;;;;;;;27.19;42.49;98507.03;5015186;28;20057;-70
2023/07/14 05:01:45;;;;;;;5.15;2.78;;;;;;;27.50;41.78;98502.81;5031353;28;20333;-70
2023/07/14 05:04:11;;;;;;;4.70;2.80;;;;;;;27.34;41.35;98495.16;4981954;28;20046;-71
2023/07/14 05:06:39;;;;;;;4.28;3.10;;;;;;;27.57;41.39;98497.81;5031765;28;20494;-70
2023/07/14 05:09:05;;;;;;;5.75;3.35;;;;;;;27.68;41.02;98502.00;5001806;28;20057;-70
2023/07/14 05:11:31;;;;;;;3.85;3.10;;;;;;;27.81;40.18;98503.19;5001657;28;20044;-70
2023/07/14 05:13:58;;;;;;;6.40;3.22;;;;;;;27.91;40.26;98498.41;5000959;28;20051;-70
2023/07/14 05:16:24;;;;;;;4.72;3.20;;;;;;;27.81;40.51;98505.91;5034511;28;20467;-70
2023/07/14 05:18:50;;;;;;;4.70;2.85;;;;;;;27.83;39.74;98511.91;5001646;28;20041;-70
2023/07/14 05:21:18;;;;;;;3.90;2.97;;;;;;;28.02;39.80;98520.88;5002747;28;20072;-70
2023/07/14 05:23:45;;;;;;;4.97;2.85;;;;;;;27.83;39.52;98512.69;5001890;28;20431;-70
2023/07/14 05:26:13;;;;;;;3.55;2.50;;;;;;;27.86;39.78;98505.84;5004232;28;20049;-71
2023/07/14 05:28:41;;;;;;;5.32;3.10;;;;;;;27.84;39.54;98510.78;5002375;28;20068;-72
2023/07/14 05:31:09;;;;;;;3.88;2.63;;;;;;;27.91;39.78;98508.50;4985432;28;20510;-70
2023/07/14 05:33:35;;;;;;;4.78;3.22;;;;;;;27.78;39.82;98511.97;5017480;28;20048;-70
2023/07/14 05:36:01;;;;;;;3.50;2.90;;;;;;;27.75;40.02;98512.56;4985257;28;21384;-70
2023/07/14 05:38:29;;;;;;;5.70;3.20;;;;;;;27.93;40.39;98512.56;4985263;28;20136;-70
2023/07/14 05:40:56;;;;;;;4.40;3.08;;;;;;;27.94;40.10;98516.91;5001111;28;20060;-71
2023/07/14 05:43:23;;;;;;;3.20;2.83;;;;;;;27.83;39.68;98518.13;4984786;28;20045;-70
2023/07/14 05:45:49;;;;;;;4.28;3.15;;;;;;;27.83;40.00;98518.13;4984656;28;20135;-70
2023/07/14 05:48:18;;;;;;;4.68;2.92;;;;;;;28.08;39.80;98519.69;5000759;28;20164;-70
2023/07/14 05:50:45;;;;;;;7.00;2.83;;;;;;;28.23;39.56;98532.28;4984836;28;20140;-70
2023/07/14 05:53:15;;;;;;;5.72;3.08;;;;;;;28.22;39.25;98528.75;5017546;28;20045;-70
2023/07/14 05:55:47;;;;;;;4.07;2.90;;;;;;;28.34;39.33;98520.88;5033530;28;20106;-69
2023/07/14 05:58:13;;;;;;;4.63;3.00;;;;;;;28.13;39.26;98530.53;5000981;28;20480;-72
2023/07/14 06:00:39;;;;;;;12.05;3.92;;;;;;;28.29;39.04;98531.91;5018369;28;20462;-70
2023/07/14 06:03:06;;;;;;;4.05;3.05;;;;;;;28.41;38.50;98534.16;5017964;28;20052;-70
2023/07/14 06:05:33;;;;;;;9.00;3.13;;;;;;;28.45;38.44;98530.53;5001589;28;20457;-71
2023/07/14 06:08:02;;;;;;;5.22;3.42;;;;;;;28.70;38.13;98542.94;4995839;28;20048;-73
2023/07/14 06:10:29;;;;;;;3.63;2.90;;;;;;;28.68;38.27;98542.44;5000462;28;20410;-71
2023/07/14 06:12:55;;;;;;;6.35;2.60;;;;;;;28.52;38.20;98546.56;5032753;28;20106;-71
2023/07/14 06:15:22;;;;;;;3.45;3.00;;;;;;;28.68;38.05;98548.72;5033872;28;20499;-70
2023/07/14 06:17:48;;;;;;;4.70;2.70;;;;;;;28.54;37.71;98547.09;5050457;28;20127;-71
2023/07/14 06:20:14;;;;;;;4.95;2.97;;;;;;;28.77;37.69;98549.63;5035144;28;20143;-70
2023/07/14 06:22:40;;;;;;;3.75;2.65;;;;;;;28.94;37.48;98546.28;5034940;28;20037;-73
2023/07/14 06:25:06;;;;;;;4.45;2.83;;;;;;;29.00;36.97;98550.56;5000958;28;20099;-72
2023/07/14 06:27:33;;;;;;;3.25;2.72;;;;;;;28.95;37.14;98556.13;5003734;28;20048;-72
2023/07/14 06:30:03;;;;;;;6.00;3.10;;;;;;;28.99;36.57;98549.75;5037608;28;20056;-71
2023/07/14 06:32:32;;;;;;;5.05;3.03;;;;;;;28.90;36.88;98548.84;5006598;28;20036;-69
2023/07/14 06:34:58;;;;;;;3.67;2.80;;;;;;;28.97;37.17;98553.91;5004690;28;20037;-69
2023/07/14 06:37:25;;;;;;;4.00;2.70;;;;;;;29.18;37.01;98546.97;5037500;28;20395;-71
2023/07/14 06:39:51;;;;;;;6.07;2.95;;;;;;;29.04;36.60;98555.13;5020745;28;20098;-72
2023/07/14 06:42:18;;;;;;;3.58;2.75;;;;;;;29.35;36.48;98561.59;5020560;28;20734;-71
2023/07/14 06:44:44;;;;;;;3.45;2.45;;;;;;;29.30;36.42;98560.91;5037839;28;20048;-70
2023/07/14 06:47:13;;;;;;;4.50;2.72;;;;;;;29.56;36.07;98570.22;5022153;28;20510;-70
2023/07/14 06:49:39;;;;;;;3.70;3.10;;;;;;;29.32;35.49;98564.16;5054764;28;20499;-71
2023/07/14 06:52:05;;;;;;;3.95;2.80;;;;;;;29.31;35.79;98559.78;5021576;28;20045;-71
2023/07/14 06:54:31;;;;;;;4.80;2.97;;;;;;;29.34;35.69;98560.00;5004994;28;20126;-71
2023/07/14 06:56:58;;;;;;;4.00;3.17;;;;;;;29.21;35.83;98565.50;5021533;28;20060;-69
2023/07/14 06:59:25;;;;;;;3.53;2.67;;;;;;;29.07;35.60;98564.69;5038221;28;20040;-71
2023/07/14 07:01:51;;;;;;;4.40;2.70;;;;;;;29.10;36.11;98564.88;5021381;28;20513;-72
2023/07/14 07:04:21;;;;;;;4.03;2.80;;;;;;;29.24;36.01;98575.81;5004727;28;20132;-71
2023/07/14 07:06:52;;;;;;;3.92;2.90;;;;;;;29.14;35.81;98570.53;5021438;28;20143;-70
2023/07/14 07:09:19;;;;;;;5.78;3.30;;;;;;;28.92;36.17;98563.00;5005036;28;20041;-70
2023/07/14 07:11:46;;;;;;;5.53;3.38;;;;;;;28.94;36.28;98560.78;5005571;28;20084;-70
2023/07/14 07:14:12;;;;;;;7.70;2.78;;;;;;;28.84;36.21;98550.06;5017886;28;20065;-69
2023/07/14 07:16:37;;;;;;;9.52;3.40;;;;;;;28.92;36.13;98568.47;4986291;28;20057;-70
2023/07/14 07:19:03;;;;;;;11.30;3.10;;;;;;;29.16;35.81;98569.13;5000438;28;20050;-70
2023/07/14 07:21:29;;;;;;;3.88;3.05;;;;;;;29.42;35.10;98572.16;4982575;28;20046;-70
2023/07/14 07:23:55;;;;;;;4.65;3.08;;;;;;;29.74;34.87;98573.97;4967980;28;20056;-70
2023/07/14 07:26:20;;;;;;;3.67;2.75;;;;;;;29.89;33.81;98579.09;5016365;28;20078;-70
2023/07/14 07:28:49;;;;;;;4.38;3.15;;;;;;;29.78;33.82;98574.97;4983966;28;20500;-71
2023/07/14 07:31:15;;;;;;;4.65;3.03;;;;;;;29.67;33.93;98581.78;5016574;28;20041;-70
2023/07/14 07:33:41;;;;;;;6.60;3.08;;;;;;;29.76;34.05;98582.66;4983881;28;20049;-70
2023/07/14 07:36:16;;;;;;;5.45;3.33;;;;;;;29.82;33.88;98586.91;5000134;28;20045;-69
2023/07/14 07:38:49;;;;;;;6.43;3.10;;;;;;;30.16;33.57;98592.69;4984515;28;20114;-69
2023/07/14 07:41:19;;;;;;;8.30;3.30;;;;;;;29.99;33.51;98587.88;5000290;28;20140;-70
2023/07/14 07:43:45;;;;;;;9.73;3.45;;;;;;;29.86;33.82;98598.88;4984225;28;20045;-70
2023/07/14 07:46:11;;;;;;;4.63;3.15;;;;;;;29.78;33.57;98591.38;5001209;28;20064;-70
2023/07/14 07:48:37;;;;;;;5.10;3.35;;;;;;;29.76;34.12;98599.09;4986847;28;20079;-70
2023/07/14 07:51:06;;;;;;;6.03;3.10;;;;;;;29.84;34.45;98592.88;4989299;28;20044;-70
2023/07/14 07:53:35;;;;;;;6.03;3.60;;;;;;;29.77;34.39;98589.78;4988223;28;20536;-70
2023/07/14 07:56:03;;;;;;;4.60;3.35;;;;;;;29.54;34.06;98592.41;5020701;28;20155;-70
2023/07/14 07:58:29;;;;;;;5.93;3.40;;;;;;;29.68;34.24;98595.16;5004233;28;20044;-70
2023/07/14 08:00:57;;;;;;;5.72;3.05;;;;;;;29.62;34.26;98596.34;5004051;28;20057;-70
2023/07/14 08:03:23;;;;;;;7.43;4.07;;;;;;;29.47;34.34;98600.22;5003991;28;20140;-70
2023/07/14 08:05:51;;;;;;;8.48;3.67;;;;;;;29.45;34.95;98596.97;5003725;28;20199;-71
2023/07/14 08:08:18;;;;;;;6.72;4.00;;;;;;;29.03;35.02;98594.50;5020812;28;20037;-70
2023/07/14 08:10:47;;;;;;;7.25;3.85;;;;;;;28.89;35.58;98603.81;5004177;28;20478;-70
2023/07/14 08:13:35;;;;;;;14.50;4.35;;;;;;;28.71;35.88;98597.28;5002478;28;20072;-70
2023/07/14 08:16:05;;;;;;;10.27;4.35;;;;;;;28.56;36.47;98599.47;5000061;28;20622;-70
2023/07/14 08:18:31;;;;;;;8.27;3.80;;;;;;;28.57;36.50;98609.31;4999237;28;20065;-72
2023/07/14 08:21:01;;;;;;;10.07;4.32;;;;;;;28.28;36.84;98608.69;4983209;28;20045;-70
2023/07/14 08:23:27;;;;;;;8.30;4.60;;;;;;;28.27;37.31;98607.03;4983585;28;20049;-70
2023/07/14 08:26:00;;;;;;;8.77;4.75;;;;;;;28.41;37.36;98613.38;4982916;28;20387;-70
2023/07/14 08:28:27;;;;;;;6.93;4.32;;;;;;;28.35;37.54;98617.28;4983064;28;20049;-70
2023/07/14 08:30:55;;;;;;;10.48;4.70;;;;;;;28.21;38.00;98616.41;4982994;28;20053;-70
2023/07/14 08:33:25;;;;;;;8.63;4.65;;;;;;;28.44;37.50;98616.31;4999220;28;20135;-70
2023/07/14 08:35:53;;;;;;;7.80;4.65;;;;;;;28.43;37.59;98622.88;5015477;28;20056;-71
2023/07/14 08:38:24;;;;;;;10.30;4.97;;;;;;;28.60;37.41;98623.16;4999283;28;20076;-70
2023/07/14 08:41:17;;;;;;;6.47;4.63;;;;;;;28.60;37.16;98622.38;4982862;28;20568;-71
2023/07/14 08:44:10;;;;;;;9.63;4.30;;;;;;;28.64;38.03;98624.22;4997897;28;20053;-70
2023/07/14 08:46:49;;;;;;;10.52;4.68;;;;;;;28.58;38.17;98616.41;5000115;28;20495;-70
2023/07/14 08:49:21;;;;;;;7.95;5.25;;;;;;;28.62;38.45;98620.97;4981846;28;20057;-69
2023/07/14 08:51:54;;;;;;;9.43;5.13;;;;;;;28.54;38.64;98605.25;5000264;28;20037;-70
2023/07/14 08:54:22;;;;;;;7.03;4.18;;;;;;;28.65;38.19;98617.63;4968204;28;20041;-70
2023/07/14 08:56:49;;;;;;;8.95;4.50;;;;;;;28.66;37.74;98615.72;4982920;28;20148;-70
2023/07/14 08:59:24;;;;;;;8.65;4.35;;;;;;;28.95;37.84;98621.75;4982225;28;20098;-69
2023/07/14 09:01:53;;;;;;;8.50;4.72;;;;;;;28.91;37.34;98623.44;4998853;28;20049;-70
2023/07/14 09:04:24;;;;;;;12.68;5.65;;;;;;;29.04;37.49;98623.50;4982693;28;20050;-70
2023/07/14 09:06:50;;;;;;;8.50;4.35;;;;;;;29.00;36.94;98619.72;4983021;28;20191;-70
2023/07/14 09:09:24;;;;;;;8.43;4.57;;;;;;;29.09;36.79;98620.66;4999343;28;20045;-70
2023/07/14 09:11:55;;;;;;;8.50;4.45;;;;;;;29.21;36.78;98621.00;4982632;28;20045;-70
2023/07/14 09:14:39;;;;;;;9.30;5.28;;;;;;;29.27;36.96;98624.44;5005989;28;20053;-69
2023/07/14 09:17:17;;;;;;;9.05;5.13;;;;;;;29.11;36.72;98626.66;5053056;28;20052;-70
2023/07/14 09:20:10;;;;;;;8.80;5.28;;;;;;;29.48;36.72;98615.53;5018045;28;20524;-70
2023/07/14 09:23:02;;;;;;;10.25;4.93;;;;;;;29.54;36.55;98633.47;5035334;28;20572;-69
2023/07/14 09:25:39;;;;;;;9.73;5.55;;;;;;;29.64;36.13;98621.53;5018557;28;20041;-70
2023/07/14 09:28:21;;;;;;;11.02;5.00;;;;;;;29.75;36.05;98624.84;5019667;28;20094;-70
2023/07/14 09:30:49;;;;;;;9.88;5.25;;;;;;;29.66;36.24;98624.78;5002328;28;20136;-70
2023/07/14 09:33:20;;;;;;;9.60;4.68;;;;;;;29.55;35.89;98626.84;5002590;28;20045;-70
2023/07/14 09:35:48;;;;;;;11.13;4.88;;;;;;;29.43;36.45;98628.50;5019132;28;20049;-70
2023/07/14 09:38:47;;;;;;;9.20;5.25;;;;;;;29.61;36.32;98633.84;5001290;28;20060;-70
2023/07/14 09:41:16;;;;;;;11.07;5.25;;;;;;;29.35;36.34;98627.25;5017589;28;20052;-70
2023/07/14 09:43:45;;;;;;;11.63;4.80;;;;;;;29.23;36.63;98626.97;5033858;28;20451;-70
2023/07/14 09:46:17;;;;;;;9.90;5.13;;;;;;;29.25;36.55;98616.53;5017558;28;20041;-70
2023/07/14 09:48:48;;;;;;;18.58;5.95;;;;;;;29.33;36.60;98623.22;5001563;28;20051;-70
2023/07/14 09:51:19;;;;;;;13.73;5.32;;;;;;;29.29;36.43;98625.75;4981889;28;20101;-70
2023/07/14 09:54:07;;;;;;;8.50;5.20;;;;;;;29.59;36.17;98622.41;4958650;28;20449;-70
2023/07/14 09:56:42;;;;;;;11.77;4.93;;;;;;;29.65;36.04;98636.00;4955514;28;20051;-70
2023/07/14 09:59:27;;;;;;;11.55;5.22;;;;;;;29.80;35.38;98639.22;4956207;28;20072;-70
2023/07/14 10:01:58;;;;;;;17.75;5.22;;;;;;;29.67;35.51;98620.91;4955781;28;20039;-70
2023/07/14 10:04:47;;;;;;;11.27;4.43;;;;;;;29.99;34.83;98636.34;4923953;28;20051;-70
2023/07/14 10:07:26;;;;;;;10.75;4.78;;;;;;;30.03;34.98;98645.59;4939673;28;20054;-70
2023/07/14 10:10:00;;;;;;;13.18;4.85;;;;;;;30.10;34.78;98644.03;4939710;28;20628;-70
2023/07/14 10:12:34;;;;;;;9.52;4.47;;;;;;;30.05;34.95;98651.56;4927341;28;20050;-71
2023/07/14 10:15:22;;;;;;;13.80;4.13;;;;;;;30.27;34.31;98659.84;4974327;28;20065;-70
2023/07/14 10:17:52;;;;;;;8.20;3.92;;;;;;;30.09;33.93;98647.88;4990777;28;20146;-70
2023/07/14 10:20:21;;;;;;;4.97;3.63;;;;;;;30.24;33.60;98661.28;4990624;28;20497;-70
2023/07/14 10:22:51;;;;;;;8.38;3.22;;;;;;;30.16;33.32;98652.94;4974599;28;20153;-69
2023/07/14 10:25:21;;;;;;;2.95;2.70;;;;;;;30.02;33.78;98660.38;4974388;28;20531;-70
2023/07/14 10:28:03;;;;;;;5.78;3.00;;;;;;;30.19;33.72;98661.38;4964783;28;20053;-70
2023/07/14 10:30:55;;;;;;;4.70;2.95;;;;;;;30.19;33.47;98658.63;5013703;28;20041;-70
2023/07/14 10:33:59;;;;;;;9.20;2.63;;;;;;;30.16;33.79;98661.97;4981302;28;20056;-70
2023/07/14 10:36:29;;;;;;;9.38;3.50;;;;;;;30.21;33.48;98666.56;5013784;28;20111;-70
2023/07/14 10:39:20;;;;;;;8.32;3.28;;;;;;;30.26;33.47;98667.25;4965361;28;20088;-70
2023/07/14 10:41:48;;;;;;;6.82;3.20;;;;;;;30.30;33.62;98670.19;5012288;28;20565;-70
2023/07/14 10:44:34;;;;;;;3.63;3.10;;;;;;;30.62;32.82;98683.66;4997717;28;20165;-70
2023/07/14 10:47:09;;;;;;;9.32;2.80;;;;;;;30.59;32.74;98678.81;4997297;28;20053;-70
2023/07/14 10:49:40;;;;;;;6.68;3.03;;;;;;;30.79;32.77;98672.84;4997276;28;20041;-70
2023/07/14 10:52:13;;;;;;;5.75;3.10;;;;;;;30.86;32.29;98679.50;4981004;28;20079;-70
2023/07/14 10:54:49;;;;;;;8.65;3.88;;;;;;;30.82;32.05;98666.75;4981101;28;20508;-71
2023/07/14 10:57:31;;;;;;;5.97;2.70;;;;;;;30.65;32.26;98683.03;5047030;28;20052;-70
2023/07/14 11:00:12;;;;;;;8.18;3.17;;;;;;;30.93;32.21;98674.41;5018480;28;20053;-71
2023/07/14 11:02:41;;;;;;;6.28;2.75;;;;;;;31.09;32.02;98689.34;5002374;28;20044;-70
2023/07/14 11:05:12;;;;;;;6.10;3.05;;;;;;;31.28;31.25;98686.38;5018157;28;20068;-70
2023/07/14 11:07:38;;;;;;;5.82;2.95;;;;;;;31.11;31.54;98678.88;5001230;28;20495;-70
2023/07/14 11:10:46;;;;;;;4.07;2.45;;;;;;;31.69;30.41;98688.84;5001260;28;20056;-70
2023/07/14 11:13:22;;;;;;;5.30;2.33;;;;;;;31.97;30.12;98682.00;5020834;28;20063;-70
2023/07/14 11:15:55;;;;;;;6.40;2.30;;;;;;;32.19;29.85;98690.94;5021626;28;20076;-70
2023/07/14 11:18:49;;;;;;;8.85;2.83;;;;;;;32.55;29.45;98688.72;5006214;28;20067;-70
2023/07/14 11:21:31;;;;;;;6.25;2.55;;;;;;;32.49;29.38;98689.22;5000347;28;20080;-70
2023/07/14 11:24:21;;;;;;;7.75;2.75;;;;;;;32.50;29.03;98675.16;4986130;28;20483;-70
2023/07/14 11:26:47;;;;;;;;;;;;;;;32.71;29.28;98685.50;4969444;28;20619;-70
2023/07/14 11:29:20;;;;;;;6.18;2.60;;;;;;;32.54;29.46;98687.09;5036438;28;19920;-70
2023/07/14 11:31:52;;;;;;;3.92;2.33;;;;;;;32.37;29.54;98686.28;5036492;28;20131;-70
2023/07/14 11:34:40;;;;;;;8.25;2.75;;;;;;;32.24;29.54;98682.53;5003313;28;20052;-70
2023/07/14 11:37:29;;;;;;;8.35;2.50;;;;;;;31.88;29.92;98686.66;5003659;28;20052;-70
2023/07/14 11:39:57;;;;;;;7.00;2.63;;;;;;;31.54;30.48;98690.06;5019905;28;20408;-70
2023/07/14 11:42:27;;;;;;;9.80;2.97;;;;;;;31.40;31.01;98683.09;5020134;28;20061;-71
2023/07/14 11:44:54;;;;;;;7.68;2.67;;;;;;;31.22;31.19;98684.91;5003237;28;20041;-70
2023/07/14 11:47:29;;;;;;;5.72;2.67;;;;;;;31.21;31.02;98683.28;5003451;28;20060;-71
2023/07/14 11:49:55;;;;;;;4.72;2.60;;;;;;;30.98;31.37;98687.19;4987010;28;20049;-70